createdAt,value
2018-06-16T00:00:26.803Z,12.98
2018-06-16T00:01:00.682Z,9.83
2018-06-16T00:01:34.251Z,9.58
2018-06-16T00:02:08.547Z,12.80
2018-06-16T00:02:42.279Z,9.08
2018-06-16T00:03:16.470Z,8.30
2018-06-16T00:03:50.036Z,10.10
2018-06-16T00:04:23.582Z,8.85
2018-06-16T00:04:57.661Z,8.53
2018-06-16T00:05:31.321Z,9.00
2018-06-16T00:06:05.003Z,8.43
2018-06-16T00:06:38.616Z,11.28
2018-06-16T00:07:12.221Z,11.00
2018-06-16T00:07:46.242Z,9.95
2018-06-16T00:08:19.859Z,10.93
2018-06-16T00:08:53.604Z,9.43
2018-06-16T00:09:27.179Z,10.82
2018-06-16T00:10:00.754Z,9.70
2018-06-16T00:10:34.290Z,9.28
2018-06-16T00:11:08.566Z,11.80
2018-06-16T00:11:42.584Z,18.50
2018-06-16T00:12:16.132Z,8.53
2018-06-16T00:12:49.688Z,16.25
2018-06-16T00:13:23.310Z,13.45
2018-06-16T00:13:56.891Z,7.78
2018-06-16T00:14:30.423Z,14.93
2018-06-16T00:15:04.131Z,10.75
2018-06-16T00:15:37.733Z,10.43
2018-06-16T00:16:11.567Z,12.07
2018-06-16T00:16:45.084Z,14.33
2018-06-16T00:17:19.463Z,11.50
2018-06-16T00:17:53.919Z,10.40
2018-06-16T00:18:27.479Z,11.18
2018-06-16T00:19:01.208Z,9.60
2018-06-16T00:19:34.776Z,12.00
2018-06-16T00:20:09.157Z,10.43
2018-06-16T00:20:43.749Z,9.33
2018-06-16T00:21:18.102Z,11.65
2018-06-16T00:21:51.701Z,11.85
2018-06-16T00:22:25.284Z,12.03
2018-06-16T00:22:59.852Z,8.55
2018-06-16T00:23:33.458Z,12.65
2018-06-16T00:24:07.527Z,15.98
2018-06-16T00:24:41.591Z,9.65
2018-06-16T00:25:16.172Z,10.55
2018-06-16T00:25:49.743Z,11.65
2018-06-16T00:26:23.570Z,10.70
2018-06-16T00:26:58.074Z,10.13
2018-06-16T00:27:31.668Z,10.23
2018-06-16T00:28:04.853Z,11.40
2018-06-16T00:28:38.509Z,10.23
2018-06-16T00:29:12.523Z,12.65
2018-06-16T00:29:46.847Z,9.93
2018-06-16T00:30:20.452Z,16.10
2018-06-16T00:30:54.247Z,9.55
2018-06-16T00:31:27.851Z,11.05
2018-06-16T00:32:01.765Z,12.15
2018-06-16T00:32:35.303Z,9.20
2018-06-16T00:33:08.872Z,9.03
2018-06-16T00:33:43.271Z,11.45
2018-06-16T00:34:16.932Z,8.15
2018-06-16T00:34:50.460Z,8.80
2018-06-16T00:35:24.773Z,8.73
2018-06-16T00:35:58.333Z,12.65
2018-06-16T00:36:31.960Z,11.35
2018-06-16T00:37:05.511Z,10.80
2018-06-16T00:37:39.687Z,10.28
2018-06-16T00:38:14.071Z,9.40
2018-06-16T00:38:48.028Z,13.00
2018-06-16T00:39:22.894Z,10.15
2018-06-16T00:39:56.536Z,11.33
2018-06-16T00:40:30.128Z,8.78
2018-06-16T00:41:03.736Z,11.63
2018-06-16T00:41:37.320Z,7.33
2018-06-16T00:42:11.028Z,13.08
2018-06-16T00:42:45.521Z,10.75
2018-06-16T00:43:19.092Z,8.63
2018-06-16T00:43:53.174Z,12.10
2018-06-16T00:44:26.412Z,8.55
2018-06-16T00:45:00.058Z,10.32
2018-06-16T00:45:34.559Z,13.80
2018-06-16T00:46:07.767Z,9.40
2018-06-16T00:46:41.352Z,9.98
2018-06-16T00:47:15.741Z,12.78
2018-06-16T00:47:49.900Z,10.10
2018-06-16T00:48:23.496Z,9.88
2018-06-16T00:48:57.100Z,12.78
2018-06-16T00:49:30.667Z,11.60
2018-06-16T00:50:04.910Z,9.45
2018-06-16T00:50:38.898Z,11.00
2018-06-16T00:51:12.496Z,8.85
2018-06-16T00:51:46.666Z,12.23
2018-06-16T00:52:20.942Z,9.48
2018-06-16T00:52:54.523Z,8.03
2018-06-16T00:53:28.819Z,8.33
2018-06-16T00:54:03.452Z,11.03
2018-06-16T00:54:36.968Z,7.90
2018-06-16T00:55:10.571Z,8.10
2018-06-16T00:55:44.185Z,12.35
2018-06-16T00:56:18.440Z,9.43
2018-06-16T00:57:02.991Z,10.30
2018-06-16T00:57:42.456Z,10.95
2018-06-16T00:58:16.056Z,10.50
2018-06-16T00:58:49.704Z,9.05
2018-06-16T00:59:23.273Z,9.30
2018-06-16T00:59:56.873Z,12.53
2018-06-16T01:00:30.119Z,10.90
2018-06-16T01:01:03.683Z,7.17
2018-06-16T01:01:37.264Z,9.55
2018-06-16T01:02:10.908Z,11.08
2018-06-16T01:02:44.521Z,10.15
2018-06-16T01:03:18.044Z,10.70
2018-06-16T01:03:51.715Z,10.18
2018-06-16T01:04:25.287Z,12.53
2018-06-16T01:04:59.216Z,8.00
2018-06-16T01:05:33.499Z,8.18
2018-06-16T01:06:07.035Z,8.10
2018-06-16T01:06:40.577Z,9.70
2018-06-16T01:07:14.174Z,10.18
2018-06-16T01:07:48.535Z,8.15
2018-06-16T01:08:22.184Z,8.48
2018-06-16T01:08:56.032Z,8.93
2018-06-16T01:09:29.590Z,9.23
2018-06-16T01:10:03.226Z,7.33
2018-06-16T01:10:36.911Z,11.97
2018-06-16T01:11:11.745Z,9.75
2018-06-16T01:11:45.291Z,8.58
2018-06-16T01:12:19.384Z,9.85
2018-06-16T01:12:52.943Z,10.85
2018-06-16T01:13:26.462Z,10.15
2018-06-16T01:14:00.119Z,10.93
2018-06-16T01:14:33.687Z,10.65
2018-06-16T01:15:07.685Z,9.03
2018-06-16T01:15:41.999Z,10.43
2018-06-16T01:16:16.190Z,12.35
2018-06-16T01:16:49.790Z,11.55
2018-06-16T01:17:23.456Z,11.15
2018-06-16T01:17:58.239Z,13.80
2018-06-16T01:18:31.452Z,9.73
2018-06-16T01:19:05.970Z,17.25
2018-06-16T01:19:39.500Z,9.35
2018-06-16T01:20:13.134Z,13.30
2018-06-16T01:20:46.681Z,9.68
2018-06-16T01:21:20.219Z,11.30
2018-06-16T01:21:53.825Z,9.38
2018-06-16T01:22:27.387Z,12.05
2018-06-16T01:23:00.946Z,7.33
2018-06-16T01:23:34.866Z,11.78
2018-06-16T01:24:08.398Z,12.70
2018-06-16T01:24:42.248Z,9.58
2018-06-16T01:25:16.136Z,11.12
2018-06-16T01:25:49.684Z,8.58
2018-06-16T01:26:23.873Z,8.93
2018-06-16T01:26:57.533Z,11.17
2018-06-16T01:27:31.797Z,11.55
2018-06-16T01:28:05.379Z,10.85
2018-06-16T01:28:38.952Z,11.55
2018-06-16T01:29:13.730Z,11.97
2018-06-16T01:29:47.296Z,13.98
2018-06-16T01:30:20.863Z,15.08
2018-06-16T01:30:55.127Z,15.20
2018-06-16T01:31:29.929Z,11.63
2018-06-16T01:32:03.511Z,10.80
2018-06-16T01:32:38.135Z,10.23
2018-06-16T01:33:11.695Z,9.43
2018-06-16T01:33:45.229Z,9.03
2018-06-16T01:34:18.818Z,8.80
2018-06-16T01:34:52.983Z,15.98
2018-06-16T01:35:26.543Z,13.65
2018-06-16T01:36:00.753Z,13.32
2018-06-16T01:36:34.328Z,15.00
2018-06-16T01:37:07.902Z,15.53
2018-06-16T01:37:41.512Z,12.55
2018-06-16T01:38:15.168Z,14.98
2018-06-16T01:38:48.722Z,11.57
2018-06-16T01:39:22.303Z,12.65
2018-06-16T01:39:55.894Z,12.68
2018-06-16T01:40:30.060Z,12.47
2018-06-16T01:41:04.207Z,13.20
2018-06-16T01:41:38.215Z,11.25
2018-06-16T01:42:12.040Z,10.72
2018-06-16T01:42:45.584Z,11.55
2018-06-16T01:43:19.144Z,8.93
2018-06-16T01:43:52.727Z,12.25
2018-06-16T01:44:26.273Z,10.03
2018-06-16T01:44:59.909Z,9.30
2018-06-16T01:45:34.100Z,9.85
2018-06-16T01:46:07.667Z,9.88
2018-06-16T01:46:41.272Z,11.95
2018-06-16T01:47:14.858Z,11.18
2018-06-16T01:47:48.423Z,16.40
2018-06-16T01:48:22.073Z,10.28
2018-06-16T01:48:56.117Z,9.57
2018-06-16T01:49:29.726Z,13.83
2018-06-16T01:50:03.319Z,13.48
2018-06-16T01:50:36.931Z,10.68
2018-06-16T01:51:10.724Z,14.20
2018-06-16T01:51:44.685Z,13.48
2018-06-16T01:52:18.241Z,9.35
2018-06-16T01:52:51.824Z,14.63
2018-06-16T01:53:25.578Z,10.98
2018-06-16T01:53:59.394Z,17.25
2018-06-16T01:54:33.653Z,13.00
2018-06-16T01:55:07.170Z,17.67
2018-06-16T01:55:40.705Z,15.45
2018-06-16T01:56:14.603Z,11.97
2018-06-16T01:56:48.340Z,13.16
2018-06-16T01:57:21.862Z,9.85
2018-06-16T01:57:55.438Z,6.08
2018-06-16T01:58:29.632Z,11.40
2018-06-16T01:59:04.072Z,9.63
2018-06-16T01:59:39.092Z,12.93
2018-06-16T02:00:12.648Z,11.48
2018-06-16T02:00:47.481Z,10.25
2018-06-16T02:01:21.111Z,11.43
2018-06-16T02:01:54.668Z,12.78
2018-06-16T02:02:28.193Z,10.75
2018-06-16T02:03:01.860Z,11.50
2018-06-16T02:03:35.433Z,12.90
2018-06-16T02:04:09.893Z,14.07
2018-06-16T02:04:43.447Z,15.30
2018-06-16T02:05:17.734Z,12.15
2018-06-16T02:05:51.279Z,12.82
2018-06-16T02:06:24.821Z,11.35
2018-06-16T02:06:58.369Z,16.73
2018-06-16T02:07:32.432Z,14.58
2018-06-16T02:08:06.701Z,11.53
2018-06-16T02:08:41.045Z,15.58
2018-06-16T02:09:15.301Z,19.55
2018-06-16T02:09:49.381Z,12.93
2018-06-16T02:10:23.051Z,16.80
2018-06-16T02:10:56.638Z,15.67
2018-06-16T02:11:30.271Z,10.38
2018-06-16T02:12:03.934Z,8.83
2018-06-16T02:12:37.699Z,9.20
2018-06-16T02:13:11.884Z,11.85
2018-06-16T02:13:45.446Z,13.25
2018-06-16T02:14:18.992Z,9.90
2018-06-16T02:14:52.506Z,13.28
2018-06-16T02:15:25.705Z,14.98
2018-06-16T02:16:00.180Z,14.07
2018-06-16T02:16:33.716Z,11.43
2018-06-16T02:17:07.245Z,11.83
2018-06-16T02:17:40.876Z,10.65
2018-06-16T02:18:14.463Z,14.53
2018-06-16T02:18:48.003Z,13.80
2018-06-16T02:19:21.515Z,10.93
2018-06-16T02:19:55.096Z,10.28
2018-06-16T02:20:28.312Z,11.28
2018-06-16T02:21:01.947Z,13.10
2018-06-16T02:21:35.586Z,11.22
2018-06-16T02:22:09.222Z,17.27
2018-06-16T02:22:43.480Z,13.95
2018-06-16T02:23:17.050Z,11.73
2018-06-16T02:23:50.632Z,11.70
2018-06-16T02:24:24.186Z,12.98
2018-06-16T02:24:58.236Z,13.97
2018-06-16T02:25:31.956Z,15.58
2018-06-16T02:26:05.563Z,14.70
2018-06-16T02:26:40.051Z,12.90
2018-06-16T02:27:13.711Z,15.18
2018-06-16T02:27:48.543Z,9.10
2018-06-16T02:28:22.848Z,11.78
2018-06-16T02:28:56.595Z,13.28
2018-06-16T02:29:30.139Z,13.85
2018-06-16T02:30:04.724Z,10.35
2018-06-16T02:30:38.595Z,10.18
2018-06-16T02:31:13.112Z,13.88
2018-06-16T02:31:46.726Z,11.55
2018-06-16T02:32:20.856Z,10.90
2018-06-16T02:32:55.022Z,14.10
2018-06-16T02:33:28.614Z,9.78
2018-06-16T02:34:02.140Z,19.65
2018-06-16T02:34:35.698Z,14.30
2018-06-16T02:35:09.361Z,14.87
2018-06-16T02:35:43.054Z,16.48
2018-06-16T02:36:16.781Z,10.85
2018-06-16T02:36:50.355Z,12.40
2018-06-16T02:37:23.943Z,13.68
2018-06-16T02:37:58.244Z,11.57
2018-06-16T02:38:32.439Z,13.32
2018-06-16T02:39:09.032Z,12.93
2018-06-16T02:39:43.204Z,14.15
2018-06-16T02:40:17.333Z,10.93
2018-06-16T02:40:50.933Z,15.25
2018-06-16T02:41:50.570Z,13.38
2018-06-16T02:42:24.213Z,16.42
2018-06-16T02:42:57.964Z,15.13
2018-06-16T02:43:32.356Z,13.05
2018-06-16T02:44:06.884Z,14.93
2018-06-16T02:44:41.001Z,16.50
2018-06-16T02:45:15.868Z,14.03
2018-06-16T02:45:49.525Z,12.88
2018-06-16T02:46:23.128Z,15.03
2018-06-16T02:46:58.126Z,12.47
2018-06-16T02:47:31.683Z,17.87
2018-06-16T02:48:05.514Z,15.10
2018-06-16T02:48:39.076Z,13.45
2018-06-16T02:49:12.676Z,12.23
2018-06-16T02:49:46.964Z,11.68
2018-06-16T02:50:20.682Z,15.85
2018-06-16T02:50:54.123Z,11.03
2018-06-16T02:51:27.708Z,12.15
2018-06-16T02:52:01.309Z,11.73
2018-06-16T02:52:35.383Z,18.07
2018-06-16T02:53:09.036Z,14.23
2018-06-16T02:53:42.628Z,17.27
2018-06-16T02:54:16.217Z,16.25
2018-06-16T02:54:49.913Z,12.60
2018-06-16T02:55:23.911Z,13.80
2018-06-16T02:55:57.513Z,14.18
2018-06-16T02:56:31.594Z,16.73
2018-06-16T02:57:06.017Z,12.10
2018-06-16T02:57:40.304Z,12.58
2018-06-16T02:58:13.948Z,14.18
2018-06-16T02:58:48.196Z,13.12
2018-06-16T02:59:22.645Z,12.15
2018-06-16T02:59:56.299Z,15.28
2018-06-16T03:00:30.265Z,13.78
2018-06-16T03:01:03.820Z,12.30
2018-06-16T03:01:37.409Z,17.17
2018-06-16T03:02:11.033Z,17.77
2018-06-16T03:02:45.259Z,14.07
2018-06-16T03:03:19.640Z,16.20
2018-06-16T03:03:53.733Z,17.37
2018-06-16T03:04:27.372Z,13.03
2018-06-16T03:05:03.376Z,15.10
2018-06-16T03:05:37.847Z,14.23
2018-06-16T03:06:12.169Z,14.43
2018-06-16T03:06:46.108Z,15.28
2018-06-16T03:07:20.332Z,14.33
2018-06-16T03:07:53.976Z,16.70
2018-06-16T03:08:28.177Z,11.70
2018-06-16T03:09:01.758Z,13.17
2018-06-16T03:09:35.341Z,13.80
2018-06-16T03:10:08.936Z,14.55
2018-06-16T03:10:42.552Z,15.05
2018-06-16T03:11:16.489Z,12.25
2018-06-16T03:11:50.466Z,13.75
2018-06-16T03:12:24.029Z,14.93
2018-06-16T03:12:58.918Z,11.70
2018-06-16T03:13:32.437Z,13.30
2018-06-16T03:14:05.989Z,12.82
2018-06-16T03:14:39.532Z,12.47
2018-06-16T03:15:13.193Z,11.30
2018-06-16T03:15:46.825Z,10.35
2018-06-16T03:16:20.339Z,15.88
2018-06-16T03:16:53.880Z,16.03
2018-06-16T03:17:27.464Z,13.95
2018-06-16T03:18:02.677Z,13.13
2018-06-16T03:18:36.279Z,17.20
2018-06-16T03:19:10.393Z,16.60
2018-06-16T03:19:45.139Z,14.90
2018-06-16T03:20:18.700Z,15.60
2018-06-16T03:20:53.023Z,12.33
2018-06-16T03:21:26.624Z,13.80
2018-06-16T03:22:00.197Z,16.80
2018-06-16T03:22:33.777Z,16.67
2018-06-16T03:23:08.072Z,14.15
2018-06-16T03:23:42.482Z,13.10
2018-06-16T03:24:16.043Z,8.13
2018-06-16T03:24:49.591Z,9.80
2018-06-16T03:25:23.169Z,12.40
2018-06-16T03:25:56.817Z,10.88
2018-06-16T03:26:31.069Z,8.35
2018-06-16T03:27:04.689Z,14.27
2018-06-16T03:27:38.251Z,13.08
2018-06-16T03:28:12.192Z,23.80
2018-06-16T03:28:45.769Z,16.23
2018-06-16T03:29:20.060Z,24.15
2018-06-16T03:29:53.653Z,14.60
2018-06-16T03:30:26.931Z,11.10
2018-06-16T03:31:01.869Z,15.03
2018-06-16T03:31:36.071Z,13.48
2018-06-16T03:32:09.667Z,20.20
2018-06-16T03:32:43.260Z,15.20
2018-06-16T03:33:16.825Z,9.95
2018-06-16T03:33:50.424Z,18.80
2018-06-16T03:34:24.688Z,13.48
2018-06-16T03:34:58.241Z,14.35
2018-06-16T03:35:32.499Z,16.62
2018-06-16T03:36:06.751Z,13.48
2018-06-16T03:36:42.091Z,15.40
2018-06-16T03:37:17.196Z,16.93
2018-06-16T03:37:51.738Z,11.68
2018-06-16T03:38:25.937Z,18.67
2018-06-16T03:38:59.556Z,14.67
2018-06-16T03:39:32.849Z,18.67
2018-06-16T03:40:06.508Z,17.73
2018-06-16T03:40:40.271Z,14.80
2018-06-16T03:41:15.467Z,16.65
2018-06-16T03:41:49.081Z,14.47
2018-06-16T03:42:22.703Z,16.70
2018-06-16T03:42:57.258Z,16.82
2018-06-16T03:43:30.910Z,22.25
2018-06-16T03:44:04.535Z,16.55
2018-06-16T03:44:38.660Z,16.75
2018-06-16T03:45:12.839Z,14.30
2018-06-16T03:45:47.140Z,13.58
2018-06-16T03:46:21.407Z,16.42
2018-06-16T03:46:54.891Z,17.30
2018-06-16T03:47:28.450Z,14.68
2018-06-16T03:48:03.260Z,19.40
2018-06-16T03:48:36.876Z,16.30
2018-06-16T03:49:10.527Z,9.60
2018-06-16T03:49:44.590Z,12.73
2018-06-16T03:50:18.133Z,17.25
2018-06-16T03:50:51.667Z,13.43
2018-06-16T03:51:25.312Z,14.53
2018-06-16T03:52:00.826Z,11.93
2018-06-16T03:52:34.960Z,16.20
2018-06-16T03:53:08.537Z,16.52
2018-06-16T03:53:43.171Z,20.32
2018-06-16T03:54:16.712Z,15.93
2018-06-16T03:54:50.285Z,17.32
2018-06-16T03:55:23.879Z,14.87
2018-06-16T03:55:57.399Z,13.53
2018-06-16T03:56:31.052Z,17.67
2018-06-16T03:57:05.964Z,15.60
2018-06-16T03:57:39.480Z,15.50
2018-06-16T03:58:13.032Z,17.67
2018-06-16T03:58:47.534Z,16.00
2018-06-16T03:59:21.129Z,18.45
2018-06-16T03:59:55.463Z,12.73
2018-06-16T04:00:29.088Z,12.85
2018-06-16T04:01:02.636Z,15.38
2018-06-16T04:01:36.729Z,12.18
2018-06-16T04:02:10.303Z,15.58
2018-06-16T04:02:44.719Z,16.30
2018-06-16T04:03:18.318Z,14.18
2018-06-16T04:03:51.884Z,13.32
2018-06-16T04:04:26.373Z,14.95
2018-06-16T04:05:00.559Z,15.90
2018-06-16T04:05:35.033Z,16.30
2018-06-16T04:06:08.570Z,13.38
2018-06-16T04:06:42.771Z,16.25
2018-06-16T04:07:17.093Z,17.73
2018-06-16T04:07:50.689Z,15.43
2018-06-16T04:08:24.383Z,15.35
2018-06-16T04:08:58.021Z,14.73
2018-06-16T04:09:31.577Z,16.35
2018-06-16T04:10:05.217Z,19.15
2018-06-16T04:10:39.161Z,16.37
2018-06-16T04:11:14.095Z,14.43
2018-06-16T04:11:47.690Z,14.78
2018-06-16T04:12:22.019Z,16.23
2018-06-16T04:12:55.613Z,14.90
2018-06-16T04:13:29.160Z,13.90
2018-06-16T04:14:02.706Z,10.72
2018-06-16T04:14:36.297Z,11.03
2018-06-16T04:15:10.827Z,16.85
2018-06-16T04:15:46.037Z,17.48
2018-06-16T04:16:20.321Z,19.07
2018-06-16T04:16:54.579Z,12.77
2018-06-16T04:17:28.186Z,12.43
2018-06-16T04:18:01.759Z,15.03
2018-06-16T04:18:35.364Z,16.25
2018-06-16T04:19:08.931Z,17.00
2018-06-16T04:19:43.833Z,12.58
2018-06-16T04:20:18.167Z,12.40
2018-06-16T04:20:51.776Z,14.30
2018-06-16T04:21:25.373Z,16.75
2018-06-16T04:21:59.628Z,18.98
2018-06-16T04:22:33.220Z,18.73
2018-06-16T04:23:06.860Z,12.07
2018-06-16T04:23:40.419Z,15.68
2018-06-16T04:24:14.032Z,10.82
2018-06-16T04:24:48.584Z,12.88
2018-06-16T04:25:22.292Z,15.80
2018-06-16T04:25:56.568Z,16.97
2018-06-16T04:26:30.253Z,12.30
2018-06-16T04:27:03.790Z,14.53
2018-06-16T04:27:38.258Z,17.48
2018-06-16T04:28:11.864Z,12.90
2018-06-16T04:28:45.477Z,15.80
2018-06-16T04:29:19.023Z,15.80
2018-06-16T04:29:53.305Z,15.28
2018-06-16T04:30:26.897Z,12.68
2018-06-16T04:31:00.516Z,15.10
2018-06-16T04:31:34.292Z,13.75
2018-06-16T04:32:07.915Z,16.80
2018-06-16T04:32:41.476Z,21.30
2018-06-16T04:33:15.702Z,15.20
2018-06-16T04:33:49.946Z,15.15
2018-06-16T04:34:23.546Z,17.37
2018-06-16T04:34:57.476Z,15.43
2018-06-16T04:35:31.047Z,13.90
2018-06-16T04:36:04.670Z,18.12
2018-06-16T04:36:38.267Z,16.27
2018-06-16T04:37:11.871Z,13.75
2018-06-16T04:37:46.283Z,18.30
2018-06-16T04:38:20.353Z,15.85
2018-06-16T04:38:54.008Z,15.27
2018-06-16T04:39:27.590Z,13.95
2018-06-16T04:40:01.773Z,13.00
2018-06-16T04:40:35.391Z,16.27
2018-06-16T04:41:08.988Z,14.70
2018-06-16T04:41:42.688Z,12.45
2018-06-16T04:42:16.301Z,13.72
2018-06-16T04:42:50.107Z,14.23
2018-06-16T04:43:23.761Z,15.95
2018-06-16T04:43:58.245Z,15.50
2018-06-16T04:44:32.004Z,12.85
2018-06-16T04:45:06.008Z,12.65
2018-06-16T04:45:40.588Z,13.38
2018-06-16T04:46:14.089Z,14.30
2018-06-16T04:46:49.156Z,12.30
2018-06-16T04:47:22.735Z,11.95
2018-06-16T04:47:56.352Z,17.23
2018-06-16T04:48:29.913Z,21.65
2018-06-16T04:49:05.299Z,12.20
2018-06-16T04:49:39.760Z,14.00
2018-06-16T04:50:13.360Z,16.55
2018-06-16T04:50:46.949Z,13.60
2018-06-16T04:51:20.448Z,13.25
2018-06-16T04:51:54.047Z,14.03
2018-06-16T04:52:27.980Z,15.18
2018-06-16T04:53:02.053Z,15.70
2018-06-16T04:53:35.615Z,13.32
2018-06-16T04:54:09.233Z,12.63
2018-06-16T04:54:43.240Z,17.62
2018-06-16T04:55:16.548Z,13.88
2018-06-16T04:55:50.276Z,16.30
2018-06-16T04:56:24.501Z,16.12
2018-06-16T04:56:58.793Z,14.47
2018-06-16T04:57:32.553Z,20.35
2018-06-16T04:58:06.201Z,12.98
2018-06-16T04:58:39.962Z,18.07
2018-06-16T04:59:13.616Z,19.70
2018-06-16T04:59:47.377Z,17.55
2018-06-16T05:00:20.627Z,17.17
2018-06-16T05:00:54.235Z,17.20
2018-06-16T05:01:28.404Z,16.95
2018-06-16T05:02:02.244Z,16.97
2018-06-16T05:02:36.461Z,22.95
2018-06-16T05:03:10.790Z,17.02
2018-06-16T05:03:44.812Z,18.77
2018-06-16T05:04:18.389Z,17.10
2018-06-16T05:04:52.938Z,20.60
2018-06-16T05:05:26.557Z,15.35
2018-06-16T05:06:01.070Z,19.52
2018-06-16T05:06:34.667Z,18.30
2018-06-16T05:07:08.919Z,17.42
2018-06-16T05:07:42.561Z,21.70
2018-06-16T05:08:17.017Z,20.17
2018-06-16T05:08:50.239Z,21.70
2018-06-16T05:09:24.714Z,13.03
2018-06-16T05:09:58.955Z,20.10
2018-06-16T05:10:33.125Z,21.27
2018-06-16T05:11:07.099Z,23.87
2018-06-16T05:11:40.988Z,20.43
2018-06-16T05:12:14.572Z,17.82
2018-06-16T05:12:49.007Z,15.02
2018-06-16T05:13:23.203Z,19.10
2018-06-16T05:13:56.781Z,16.87
2018-06-16T05:14:30.450Z,16.42
2018-06-16T05:15:04.113Z,16.57
2018-06-16T05:15:37.703Z,20.43
2018-06-16T05:16:11.272Z,17.15
2018-06-16T05:16:44.854Z,16.70
2018-06-16T05:17:18.946Z,16.20
2018-06-16T05:17:52.749Z,14.28
2018-06-16T05:18:26.335Z,21.87
2018-06-16T05:19:00.290Z,16.47
2018-06-16T05:19:33.520Z,19.27
2018-06-16T05:20:07.746Z,14.18
2018-06-16T05:20:41.423Z,14.28
2018-06-16T05:21:15.064Z,16.27
2018-06-16T05:21:49.311Z,17.70
2018-06-16T05:22:23.901Z,14.85
2018-06-16T05:22:57.466Z,14.10
2018-06-16T05:23:30.679Z,18.42
2018-06-16T05:24:04.221Z,15.95
2018-06-16T05:24:38.398Z,17.40
2018-06-16T05:25:12.017Z,18.23
2018-06-16T05:25:47.011Z,18.67
2018-06-16T05:26:20.520Z,14.85
2018-06-16T05:26:54.039Z,18.23
2018-06-16T05:27:27.687Z,15.72
2018-06-16T05:28:01.246Z,12.37
2018-06-16T05:28:34.772Z,14.90
2018-06-16T05:29:07.990Z,15.00
2018-06-16T05:29:42.187Z,16.25
2018-06-16T05:30:15.903Z,19.45
2018-06-16T05:30:50.250Z,16.45
2018-06-16T05:31:24.166Z,19.10
2018-06-16T05:31:57.797Z,17.12
2018-06-16T05:32:31.410Z,17.42
2018-06-16T05:33:04.988Z,16.77
2018-06-16T05:33:39.186Z,18.80
2018-06-16T05:34:12.769Z,15.90
2018-06-16T05:34:46.364Z,19.27
2018-06-16T05:35:20.521Z,15.45
2018-06-16T05:35:54.359Z,21.82
2018-06-16T05:36:28.651Z,13.72
2018-06-16T05:37:03.067Z,20.00
2018-06-16T05:37:37.580Z,15.43
2018-06-16T05:38:11.128Z,13.53
2018-06-16T05:38:45.082Z,18.35
2018-06-16T05:39:18.764Z,18.67
2018-06-16T05:39:52.391Z,21.95
2018-06-16T05:40:26.001Z,17.65
2018-06-16T05:40:59.802Z,16.87
2018-06-16T05:41:33.346Z,17.42
2018-06-16T05:42:07.000Z,14.15
2018-06-16T05:42:41.595Z,18.27
2018-06-16T05:43:15.136Z,19.35
2018-06-16T05:43:48.719Z,18.48
2018-06-16T05:44:22.345Z,22.65
2018-06-16T05:44:56.739Z,14.43
2018-06-16T05:45:30.404Z,16.25
2018-06-16T05:46:04.084Z,16.80
2018-06-16T05:46:37.700Z,19.40
2018-06-16T05:47:11.313Z,16.10
2018-06-16T05:47:44.908Z,16.52
2018-06-16T05:48:18.507Z,16.73
2018-06-16T05:48:52.076Z,15.98
2018-06-16T05:49:25.709Z,22.75
2018-06-16T05:49:59.559Z,15.93
2018-06-16T05:50:33.127Z,17.55
2018-06-16T05:51:06.794Z,19.43
2018-06-16T05:51:40.434Z,25.12
2018-06-16T05:52:14.611Z,16.02
2018-06-16T05:52:49.108Z,21.52
2018-06-16T05:53:22.683Z,14.47
2018-06-16T05:53:56.246Z,24.92
2018-06-16T05:54:29.883Z,19.35
2018-06-16T05:55:03.507Z,17.73
2018-06-16T05:55:37.091Z,16.27
2018-06-16T05:56:11.319Z,21.33
2018-06-16T05:56:44.878Z,20.27
2018-06-16T05:57:18.444Z,16.62
2018-06-16T05:57:52.023Z,18.80
2018-06-16T05:58:25.548Z,20.45
2018-06-16T05:58:59.104Z,20.53
2018-06-16T05:59:32.726Z,21.45
2018-06-16T06:00:06.733Z,18.25
2018-06-16T06:00:40.928Z,22.67
2018-06-16T06:01:14.467Z,23.70
2018-06-16T06:01:48.051Z,22.75
2018-06-16T06:02:22.451Z,22.22
2018-06-16T06:02:56.527Z,24.50
2018-06-16T06:03:30.811Z,24.18
2018-06-16T06:04:05.706Z,19.85
2018-06-16T06:04:39.659Z,21.90
2018-06-16T06:05:13.302Z,24.32
2018-06-16T06:05:46.986Z,22.85
2018-06-16T06:06:21.126Z,29.32
2018-06-16T06:06:54.387Z,21.43
2018-06-16T06:07:28.515Z,26.93
2018-06-16T06:08:03.007Z,20.88
2018-06-16T06:08:36.640Z,27.93
2018-06-16T06:09:11.058Z,27.73
2018-06-16T06:09:44.620Z,25.30
2018-06-16T06:10:18.288Z,25.45
2018-06-16T06:10:51.834Z,26.10
2018-06-16T06:11:25.964Z,27.32
2018-06-16T06:11:59.533Z,28.02
2018-06-16T06:12:33.712Z,28.50
2018-06-16T06:13:08.012Z,23.40
2018-06-16T06:13:41.603Z,26.07
2018-06-16T06:14:15.162Z,26.93
2018-06-16T06:14:49.257Z,27.52
2018-06-16T06:15:22.851Z,25.68
2018-06-16T06:15:56.372Z,36.58
2018-06-16T06:16:30.727Z,24.63
2018-06-16T06:17:04.728Z,25.60
2018-06-16T06:17:38.276Z,26.80
2018-06-16T06:18:11.877Z,28.42
2018-06-16T06:18:46.368Z,32.00
2018-06-16T06:19:19.998Z,27.02
2018-06-16T06:19:53.580Z,29.80
2018-06-16T06:20:27.124Z,29.48
2018-06-16T06:21:00.662Z,26.70
2018-06-16T06:21:34.857Z,29.35
2018-06-16T06:22:08.444Z,24.92
2018-06-16T06:22:41.984Z,24.47
2018-06-16T06:23:15.558Z,30.10
2018-06-16T06:23:49.812Z,25.12
2018-06-16T06:24:24.047Z,31.37
2018-06-16T06:24:58.629Z,29.50
2018-06-16T06:25:32.267Z,29.63
2018-06-16T06:26:07.740Z,33.30
2018-06-16T06:26:41.449Z,25.30
2018-06-16T06:27:15.041Z,25.32
2018-06-16T06:27:48.608Z,30.70
2018-06-16T06:28:22.661Z,29.63
2018-06-16T06:28:57.499Z,25.17
2018-06-16T06:29:31.112Z,25.20
2018-06-16T06:30:04.809Z,28.25
2018-06-16T06:30:38.397Z,21.02
2018-06-16T06:31:12.318Z,25.23
2018-06-16T06:31:46.013Z,32.48
2018-06-16T06:32:19.596Z,29.87
2018-06-16T06:32:54.279Z,27.40
2018-06-16T06:33:27.823Z,26.80
2018-06-16T06:34:02.407Z,28.65
2018-06-16T06:34:36.593Z,33.75
2018-06-16T06:35:11.004Z,24.85
2018-06-16T06:35:44.551Z,31.90
2018-06-16T06:36:18.103Z,26.45
2018-06-16T06:36:52.448Z,28.70
2018-06-16T06:37:26.048Z,26.85
2018-06-16T06:37:59.595Z,31.87
2018-06-16T06:38:33.146Z,27.67
2018-06-16T06:39:08.213Z,26.93
2018-06-16T06:39:41.787Z,29.07
2018-06-16T06:40:15.883Z,27.70
2018-06-16T06:40:49.676Z,36.68
2018-06-16T06:41:23.276Z,25.72
2018-06-16T06:41:58.161Z,28.87
2018-06-16T06:42:31.693Z,29.02
2018-06-16T06:43:05.994Z,25.83
2018-06-16T06:43:40.466Z,27.10
2018-06-16T06:44:14.057Z,29.55
2018-06-16T06:44:48.481Z,27.05
2018-06-16T06:45:24.299Z,29.70
2018-06-16T06:45:57.917Z,32.00
2018-06-16T06:46:31.528Z,26.93
2018-06-16T06:47:05.307Z,28.17
2018-06-16T06:47:38.941Z,28.80
2018-06-16T06:48:13.269Z,30.25
2018-06-16T06:48:48.477Z,26.77
2018-06-16T06:49:22.638Z,31.57
2018-06-16T06:49:56.192Z,25.90
2018-06-16T06:50:29.802Z,33.00
2018-06-16T06:51:03.545Z,32.43
2018-06-16T06:51:37.148Z,26.02
2018-06-16T06:52:10.855Z,25.85
2018-06-16T06:52:46.391Z,25.10
2018-06-16T06:53:21.068Z,33.80
2018-06-16T06:53:54.662Z,32.13
2018-06-16T06:54:28.269Z,30.00
2018-06-16T06:55:02.659Z,28.03
2018-06-16T06:55:36.748Z,27.07
2018-06-16T06:56:10.855Z,29.45
2018-06-16T06:56:44.433Z,32.95
2018-06-16T06:57:19.314Z,25.17
2018-06-16T06:57:52.947Z,30.85
2018-06-16T06:58:27.583Z,29.07
2018-06-16T06:59:01.233Z,30.50
2018-06-16T06:59:35.467Z,25.82
2018-06-16T07:00:12.023Z,28.47
2018-06-16T07:00:46.495Z,24.80
2018-06-16T07:01:20.836Z,25.88
2018-06-16T07:01:54.843Z,26.23
2018-06-16T07:02:28.923Z,32.88
2018-06-16T07:03:02.512Z,29.20
2018-06-16T07:03:36.118Z,29.45
2018-06-16T07:04:11.545Z,26.17
2018-06-16T07:04:45.336Z,28.02
2018-06-16T07:05:19.598Z,30.17
2018-06-16T07:05:53.530Z,25.50
2018-06-16T07:06:27.113Z,41.58
2018-06-16T07:07:03.324Z,23.98
2018-06-16T07:07:38.471Z,25.85
2018-06-16T07:08:12.086Z,22.70
2018-06-16T07:08:47.159Z,28.12
2018-06-16T07:09:20.859Z,32.15
2018-06-16T07:09:54.750Z,29.77
2018-06-16T07:10:28.344Z,21.60
2018-06-16T07:11:02.004Z,28.60
2018-06-16T07:11:35.608Z,31.62
2018-06-16T07:12:09.160Z,30.55
2018-06-16T07:12:42.664Z,30.32
2018-06-16T07:13:16.367Z,28.70
2018-06-16T07:13:49.962Z,29.52
2018-06-16T07:14:23.563Z,29.40
2018-06-16T07:14:57.175Z,30.13
2018-06-16T07:15:30.764Z,28.45
2018-06-16T07:16:05.252Z,30.77
2018-06-16T07:16:38.875Z,32.48
2018-06-16T07:17:12.693Z,23.62
2018-06-16T07:17:46.304Z,30.57
2018-06-16T07:18:20.378Z,30.68
2018-06-16T07:18:53.943Z,29.03